My Meet Scores
Addie Sullivan, Kinetic Kids LLC - MyMeetScores.com
Top100 | Top Teams | Upcoming Meets | Completed Meets | Latest | Add Scores | Help| Support | Bookmark and Share

Addie Sullivan, Kinetic Kids LLC
Personal Bests
LevelVault BarsBeamFloorAA
XD8.7758.400 8.5508.00033.375
XG8.5509.100 9.2509.05035.100
XP9.1759.250 9.3009.20036.400
Meet Scores
Date Meet Team Session Level Division Vault Bars Beam Floor AA
2022-01-15 DGS Northeast Invite Kinetic Kids LLC 4 XD Senior A 8.775 21T 8.400 15 7.275 39 8.000 43 32.450 34
2021-12-03 Rhode Island Invitational Kinetic Kids LLC SS3 XD Jr B 8.700 21T 8.375 10 8.550 18 7.750 29 33.375 23
2020-02-28 2020 February Flip Invitational Kinetic Kids LLC 9 XP 14 yr old 9.175 9 9.250 4 9.225 3 8.750 9 36.400 6
2020-01-24 2020 Kinetic Kids Invitational CT-Unattached 8 XP Jr B 8.900 8 8.900 4 9.000 5 8.250 7 35.050 3
2019-12-06 Rhode Island Invitational Kinetic Kids LLC WS5 XP junior 8.625 7 8.425 6 9.125 4 8.500 9 34.675 8
2019-11-09 2019 PHS Turkey Tumble Kinetic Kids LLC 4 XP Older 8.025 3 8.300 3 9.150 2 8.650 4 34.125 3
2019-04-27 Xcel Gold, Platinum, Diamond State Championsh Kinetic Kids LLC 6 XP Jr C 8.850 52T 7.225 51 8.650 46T 8.850 51T 33.575 51
2019-02-22 2019 February Flip Invitational Kinetic Kids LLC 7 XP 13 yr old 8.800 9 8.450 7 9.200 3T 8.400 11 34.850 9
2019-01-25 Kinetic Kids Invitational 2019 Kinetic Kids LLC 4 XP Jr B 8.750 6 8.350 7 8.900 5 8.450 5 34.450 6
2018-12-15 Reindeer Games 2018 Kinetic Kids LLC 5 XP Junior 8.500 11T 8.400 9T 8.150 13 8.750 8T 33.800 12
2018-11-10 2018 Turkey Tumble Kinetic Kids LLC 4 XP All 8.250 7 8.200 3 8.900 5 7.600 7 32.950 6
2018-04-21 2018 Connecticut XG, XP, XD State Championships Kinetic Kids LLC 6 XP Jr. B 8.400 46T 8.200 40T 8.250 47 8.975 40T 33.825 48
2018-03-01 Holiday Costume Cup 2018 Kinetic Kids LLC 1 XP Younger 8.300 13 8.000 3 8.200 8 9.200 7 33.700 11
2018-02-23 2018 February Flip Invitational Kinetic Kids LLC 10 XP 12 under 8.450 10 8.925 4 9.300 4 8.650 9 35.325 7
2018-01-19 Kinetic Kids Invitational Kinetic Kids LLC 8 XP Jr A 8.650 6 8.650 4 7.825 8 8.675 8 33.800 6
2017-12-15 Reindeer Games 2017 Kinetic Kids LLC 1 XP Junior 8.600 12 9.000 3 8.700 8T 8.000 13 34.300 8
2017-11-10 2017 Phs Turkey Tumble Kinetic Kids LLC 3 XP Younger 8.500 3 8.200 2T 8.550 1 8.500 1 33.750 1
2017-04-29 Xcel Gold, Platinum, Diamond State Championships Vasi's International Gymnastics LLC 1 XP Jr A 8.200 21 7.950 17 7.900 16T 8.800 20T 32.850 20
2017-02-10 Team Challenge 2017 Vasi's International Gymnastics LLC 05B XP Child 8.450 8 8.650 5 7.300 9 8.650 7 33.050 7
2017-01-13 Northeast Invitational Vasi's International Gymnastics LLC 3 XP 11-13 yrs. 7.900 11 8.200 4 7.925 8 8.150 10 32.175 8
2016-04-23 2016 Connecticut XG, XP, XD State Meet Vasi's International Gymnastics LLC 5 XG Ch.A 8.400 12 8.400 14 9.250 5 9.050 7 35.100 8T
2016-01-28 2016 American Invitational Vasi's International Gymnastics LLC 2A XG Child 8.100 6 9.100 4 8.500 5 8.525 6 34.225 4
2016-01-15 DGS Invitational Vasi's International Gymnastics LLC A3 XG 8-10 yrs. 8.550 6T 8.450 7 9.100 3 8.800 9 34.900 5
Get your scores on
a t-shirt, pin, or hoodie